Kirkcaldy, United Kingdom
Current Conditions -  °F | °C
As of 10:20 AM on Thursday 25 Dec 2014 (Local Time) from EGPH Reporting Station
Broken Clouds Broken Clouds  
Wind Chill: 34°   Ceiling: 3600
Heat Index: 37°   Visibility: 6mi
Dew Point: 36°   Wind: 5mph
Humidity: 93%   Direction: 270°W
Pressure: 30.27"   Gusts: NA
Location:  56.11°N, 3.16°W
Report Text: EGPH 251020Z 27004KT 9999 SCT020 BKN036 03/02 Q1025
Loading
Personal Weather Stations






























Interactive Weather Map New forecast layout! Learn more

10-Day Weather Forecast

Advertisements
Track Severe Weather on mobile